Time;durP1;ratioP1;P1;durP2;ratioP2;P2;SDS_P1;SDS_P2;PMS_P1;PMS_P2;Temp;Humidity;BMP_temperature;BMP_pressure;BME280_temperature;BME280_humidity;BME280_pressure;Samples;Min_cycle;Max_cycle;Signal;HPM_P1;HPM_P2
2022/09/03 00:01:57;;;;;;;;;;;17.70;51.90;;;;;;5119202;27;20099;-78
2022/09/03 00:04:27;;;;;;;;;;;17.70;51.80;;;;;;5122690;27;19926;-77
2022/09/03 00:06:58;;;;;;;;;;;17.70;52.00;;;;;;5125356;27;20346;-78
2022/09/03 00:09:26;;;;;;;;;;;17.60;52.20;;;;;;5121840;27;19927;-78
2022/09/03 00:11:53;;;;;;;;;;;17.60;52.40;;;;;;5126833;27;19923;-78
2022/09/03 00:14:22;;;;;;;;;;;17.60;52.10;;;;;;5128086;27;20125;-78
2022/09/03 00:16:51;;;;;;;;;;;17.60;52.00;;;;;;5125778;27;19919;-79
2022/09/03 00:19:21;;;;;;;;;;;17.60;51.90;;;;;;5120310;27;19923;-78
2022/09/03 00:21:49;;;;;;;;;;;17.70;52.00;;;;;;5127211;27;19926;-79
2022/09/03 00:24:17;;;;;;;;;;;17.60;52.10;;;;;;5125227;27;20382;-77
2022/09/03 00:26:47;;;;;;;;;;;17.60;52.30;;;;;;5122981;27;19934;-79
2022/09/03 00:29:16;;;;;;;;;;;17.60;52.50;;;;;;5130513;27;20241;-77
2022/09/03 00:31:46;;;;;;;;;;;17.60;52.50;;;;;;5123687;27;19919;-78
2022/09/03 00:34:16;;;;;;;;;;;17.60;52.50;;;;;;5122368;27;19935;-77
2022/09/03 00:36:45;;;;;;;;;;;17.50;52.70;;;;;;5125979;27;19919;-76
2022/09/03 00:39:12;;;;;;;;;;;17.60;52.50;;;;;;5127030;27;19920;-77
2022/09/03 00:41:44;;;;;;;;;;;17.60;52.50;;;;;;5125034;27;19928;-79
2022/09/03 00:44:20;;;;;;;;;;;17.60;52.40;;;;;;5125833;27;19927;-78
2022/09/03 00:46:52;;;;;;;;;;;17.60;52.40;;;;;;5118345;27;19928;-77
2022/09/03 00:49:24;;;;;;;;;;;17.60;52.40;;;;;;5128774;27;19923;-78
2022/09/03 00:51:56;;;;;;;;;;;17.50;52.40;;;;;;5129329;27;20014;-78
2022/09/03 00:54:25;;;;;;;;;;;17.60;52.30;;;;;;5125776;27;20315;-78
2022/09/03 00:56:59;;;;;;;;;;;17.60;52.30;;;;;;5125474;27;19919;-78
2022/09/03 00:59:34;;;;;;;;;;;17.60;52.20;;;;;;5124185;27;19923;-78
2022/09/03 01:02:08;;;;;;;;;;;17.60;52.10;;;;;;5122365;27;20288;-76
2022/09/03 01:04:40;;;;;;;;;;;17.60;52.20;;;;;;5124160;27;19926;-77
2022/09/03 01:07:12;;;;;;;;;;;17.50;52.30;;;;;;5124483;27;19924;-79
2022/09/03 01:09:47;;;;;;;;;;;17.60;52.30;;;;;;5126467;27;20269;-78
2022/09/03 01:12:17;;;;;;;;;;;17.60;52.10;;;;;;5127333;27;20017;-77
2022/09/03 01:14:50;;;;;;;;;;;17.60;52.30;;;;;;5120385;27;20285;-74
2022/09/03 01:17:22;;;;;;;;;;;17.60;52.40;;;;;;5118456;27;19927;-77
2022/09/03 01:19:59;;;;;;;;;;;17.50;52.70;;;;;;5121940;27;19920;-77
2022/09/03 01:22:44;;;;;;;;;;;17.50;52.80;;;;;;5132010;27;20364;-76
2022/09/03 01:25:23;;;;;;;;;;;17.50;52.80;;;;;;5125673;27;19934;-77
2022/09/03 01:28:01;;;;;;;;;;;17.50;53.00;;;;;;5120928;27;19923;-78
2022/09/03 01:30:29;;;;;;;;;;;17.40;53.00;;;;;;5124231;27;19927;-79
2022/09/03 01:33:00;;;;;;;;;;;17.40;53.50;;;;;;5126158;27;20376;-77
2022/09/03 01:35:30;;;;;;;;;;;17.30;53.60;;;;;;5128779;27;19927;-78
2022/09/03 01:38:04;;;;;;;;;;;17.30;53.80;;;;;;5120580;27;19994;-79
2022/09/03 01:40:37;;;;;;;;;;;17.20;53.70;;;;;;5127730;27;19923;-77
2022/09/03 01:43:14;;;;;;;;;;;17.20;53.80;;;;;;5124143;27;19927;-78
2022/09/03 01:45:47;;;;;;;;;;;17.20;53.70;;;;;;5124814;27;19959;-78
2022/09/03 01:48:23;;;;;;;;;;;17.20;53.90;;;;;;5123769;27;19975;-78
2022/09/03 01:50:58;;;;;;;;;;;17.20;53.80;;;;;;5126147;27;19965;-77
2022/09/03 01:53:32;;;;;;;;;;;17.20;54.00;;;;;;5119244;27;19919;-78
2022/09/03 01:56:12;;;;;;;;;;;17.10;54.10;;;;;;5119104;27;19946;-77
2022/09/03 01:58:44;;;;;;;;;;;17.10;54.40;;;;;;5118962;27;19935;-76
2022/09/03 02:01:14;;;;;;;;;;;17.10;54.30;;;;;;5118029;27;20383;-78
2022/09/03 02:03:43;;;;;;;;;;;17.10;54.30;;;;;;5122574;27;19923;-77
2022/09/03 02:06:11;;;;;;;;;;;17.10;54.20;;;;;;5126079;27;19941;-76
2022/09/03 02:08:38;;;;;;;;;;;17.10;54.10;;;;;;5127665;27;19923;-77
2022/09/03 02:11:05;;;;;;;;;;;17.10;54.40;;;;;;5124329;27;19923;-77
2022/09/03 02:13:36;;;;;;;;;;;17.10;54.30;;;;;;5121053;27;19919;-77
2022/09/03 02:16:08;;;;;;;;;;;17.10;54.40;;;;;;5127042;27;19942;-77
2022/09/03 02:18:37;;;;;;;;;;;17.10;54.60;;;;;;5128274;27;19919;-78
2022/09/03 02:21:04;;;;;;;;;;;17.00;54.70;;;;;;5128430;27;20442;-78
2022/09/03 02:23:30;;;;;;;;;;;16.90;55.00;;;;;;5129140;27;19919;-76
2022/09/03 02:25:59;;;;;;;;;;;17.00;55.00;;;;;;5130833;27;19981;-78
2022/09/03 02:28:26;;;;;;;;;;;16.90;55.10;;;;;;5125721;27;19952;-77
2022/09/03 02:30:53;;;;;;;;;;;16.90;55.30;;;;;;5129521;27;19928;-78
2022/09/03 02:33:22;;;;;;;;;;;16.80;55.50;;;;;;5119217;27;19927;-78
2022/09/03 02:35:49;;;;;;;;;;;16.90;55.40;;;;;;5126393;27;19930;-77
2022/09/03 02:38:16;;;;;;;;;;;16.80;55.70;;;;;;5129178;27;19919;-78
2022/09/03 02:40:44;;;;;;;;;;;16.80;55.30;;;;;;5122744;27;19920;-79
2022/09/03 02:43:14;;;;;;;;;;;16.90;55.50;;;;;;5129000;27;19964;-78
2022/09/03 02:45:42;;;;;;;;;;;16.90;55.40;;;;;;5126245;27;20387;-77
2022/09/03 02:48:10;;;;;;;;;;;16.90;55.30;;;;;;5120857;27;19920;-78
2022/09/03 02:50:41;;;;;;;;;;;16.90;55.30;;;;;;5128650;27;20345;-78
2022/09/03 02:53:08;;;;;;;;;;;16.90;55.20;;;;;;5133636;27;19923;-78
2022/09/03 02:55:35;;;;;;;;;;;16.90;55.20;;;;;;5120143;27;19997;-77
2022/09/03 02:58:03;;;;;;;;;;;16.80;55.60;;;;;;5122897;27;20007;-79
2022/09/03 03:00:30;;;;;;;;;;;16.90;55.40;;;;;;5122172;27;20369;-77
2022/09/03 03:02:57;;;;;;;;;;;16.90;55.50;;;;;;5123748;27;21182;-79
2022/09/03 03:05:26;;;;;;;;;;;16.80;55.60;;;;;;5120505;27;19926;-79
2022/09/03 03:07:55;;;;;;;;;;;16.70;55.70;;;;;;5128503;27;19950;-78
2022/09/03 03:10:21;;;;;;;;;;;16.70;55.80;;;;;;5128137;27;19924;-78
2022/09/03 03:12:48;;;;;;;;;;;16.70;55.90;;;;;;5127890;27;19923;-79
2022/09/03 03:15:15;;;;;;;;;;;16.70;55.90;;;;;;5119304;27;20014;-76
2022/09/03 03:17:42;;;;;;;;;;;16.70;55.80;;;;;;5124543;27;19924;-79
2022/09/03 03:20:09;;;;;;;;;;;16.70;55.80;;;;;;5117412;27;19935;-77
2022/09/03 03:22:36;;;;;;;;;;;16.70;55.70;;;;;;5122694;27;19919;-80
2022/09/03 03:25:04;;;;;;;;;;;16.70;55.80;;;;;;5127868;27;19938;-79
2022/09/03 03:27:31;;;;;;;;;;;16.60;56.10;;;;;;5128911;27;19920;-78
2022/09/03 03:29:58;;;;;;;;;;;16.60;56.50;;;;;;5131320;27;19919;-78
2022/09/03 03:32:24;;;;;;;;;;;16.60;56.40;;;;;;5124644;27;19923;-79
2022/09/03 03:34:51;;;;;;;;;;;16.60;56.30;;;;;;5113422;27;19920;-77
2022/09/03 03:37:18;;;;;;;;;;;16.60;56.50;;;;;;5129295;27;19920;-79
2022/09/03 03:39:44;;;;;;;;;;;16.50;56.60;;;;;;5129383;27;19927;-78
2022/09/03 03:42:13;;;;;;;;;;;16.40;56.90;;;;;;5120103;27;20373;-77
2022/09/03 03:44:41;;;;;;;;;;;16.50;56.90;;;;;;5130930;27;19920;-77
2022/09/03 03:47:07;;;;;;;;;;;16.40;57.20;;;;;;5118215;27;20434;-78
2022/09/03 03:49:34;;;;;;;;;;;16.50;57.00;;;;;;5125594;27;19920;-79
2022/09/03 03:52:02;;;;;;;;;;;16.50;56.90;;;;;;5126860;27;19925;-78
2022/09/03 03:54:28;;;;;;;;;;;16.50;56.90;;;;;;5123514;27;20022;-79
2022/09/03 03:56:55;;;;;;;;;;;16.50;57.00;;;;;;5124836;27;19919;-80
2022/09/03 03:59:23;;;;;;;;;;;16.50;57.20;;;;;;5125883;27;19919;-78
2022/09/03 04:01:51;;;;;;;;;;;16.50;57.30;;;;;;5117249;27;19937;-78
2022/09/03 04:04:18;;;;;;;;;;;16.50;57.20;;;;;;5126364;27;19947;-78
2022/09/03 04:06:45;;;;;;;;;;;16.50;57.10;;;;;;5130182;27;19925;-77
2022/09/03 04:09:11;;;;;;;;;;;16.50;57.30;;;;;;5125762;27;20328;-78
2022/09/03 04:11:38;;;;;;;;;;;16.50;57.20;;;;;;5121840;27;19924;-78
2022/09/03 04:14:05;;;;;;;;;;;16.50;57.40;;;;;;5128267;27;19919;-77
2022/09/03 04:16:33;;;;;;;;;;;16.40;57.70;;;;;;5120180;27;19919;-78
2022/09/03 04:19:00;;;;;;;;;;;16.50;57.30;;;;;;5126535;27;19926;-77
2022/09/03 04:21:28;;;;;;;;;;;16.60;57.20;;;;;;5131163;27;19920;-77
2022/09/03 04:23:55;;;;;;;;;;;16.50;57.30;;;;;;5137094;27;19925;-79
2022/09/03 04:26:23;;;;;;;;;;;16.50;57.00;;;;;;5123004;27;19920;-76
2022/09/03 04:28:50;;;;;;;;;;;16.50;57.10;;;;;;5124972;27;19926;-78
2022/09/03 04:31:18;;;;;;;;;;;16.50;57.10;;;;;;5122204;27;20014;-76
2022/09/03 04:33:46;;;;;;;;;;;16.50;57.10;;;;;;5126935;27;19930;-75
2022/09/03 04:36:13;;;;;;;;;;;16.50;57.00;;;;;;5129284;27;19923;-76
2022/09/03 04:38:41;;;;;;;;;;;16.60;57.20;;;;;;5130773;27;19930;-78
2022/09/03 04:41:08;;;;;;;;;;;16.50;57.50;;;;;;5128471;27;20022;-78
2022/09/03 04:43:35;;;;;;;;;;;16.50;57.70;;;;;;5131214;27;19964;-76
2022/09/03 04:46:04;;;;;;;;;;;16.60;57.70;;;;;;5132666;27;19926;-77
2022/09/03 04:48:31;;;;;;;;;;;16.60;57.50;;;;;;5123750;27;19931;-77
2022/09/03 04:51:05;;;;;;;;;;;16.60;57.80;;;;;;5129622;27;19923;-78
2022/09/03 04:53:32;;;;;;;;;;;16.60;57.80;;;;;;5125944;27;20017;-78
2022/09/03 04:55:59;;;;;;;;;;;16.60;57.90;;;;;;5125193;27;20019;-78
2022/09/03 04:58:26;;;;;;;;;;;16.60;57.90;;;;;;5131602;27;19919;-78
2022/09/03 05:00:53;;;;;;;;;;;16.70;57.50;;;;;;5120828;27;19920;-78
2022/09/03 05:03:20;;;;;;;;;;;16.70;57.40;;;;;;5128240;27;20344;-77
2022/09/03 05:05:54;;;;;;;;;;;16.80;57.30;;;;;;5129735;27;19920;-77
2022/09/03 05:08:22;;;;;;;;;;;16.70;57.40;;;;;;5130480;27;20188;-78
2022/09/03 05:10:49;;;;;;;;;;;16.80;57.20;;;;;;5121404;27;19927;-77
2022/09/03 05:13:16;;;;;;;;;;;16.90;57.20;;;;;;5128727;27;19955;-76
2022/09/03 05:15:44;;;;;;;;;;;16.80;57.30;;;;;;5122856;27;19920;-77
2022/09/03 05:18:11;;;;;;;;;;;16.80;57.10;;;;;;5131233;27;19929;-78
2022/09/03 05:20:37;;;;;;;;;;;16.90;57.10;;;;;;5124716;27;19937;-78
2022/09/03 05:23:04;;;;;;;;;;;16.90;56.90;;;;;;5129699;27;19923;-78
2022/09/03 05:25:32;;;;;;;;;;;16.90;56.60;;;;;;5129141;27;19919;-78
2022/09/03 05:28:00;;;;;;;;;;;16.90;56.50;;;;;;5132148;27;20536;-76
2022/09/03 05:30:26;;;;;;;;;;;16.90;56.50;;;;;;5121601;27;19927;-77
2022/09/03 05:32:54;;;;;;;;;;;17.00;56.20;;;;;;5120290;27;19919;-76
2022/09/03 05:35:20;;;;;;;;;;;17.00;56.20;;;;;;5120353;27;19927;-76
2022/09/03 05:37:47;;;;;;;;;;;17.10;56.10;;;;;;5129384;27;20313;-77
2022/09/03 05:40:14;;;;;;;;;;;17.10;56.00;;;;;;5129193;27;19927;-77
2022/09/03 05:42:43;;;;;;;;;;;17.10;56.10;;;;;;5129150;27;19931;-77
2022/09/03 05:45:10;;;;;;;;;;;17.10;56.10;;;;;;5129787;27;19919;-77
2022/09/03 05:47:38;;;;;;;;;;;17.10;56.10;;;;;;5131230;27;19923;-78
2022/09/03 05:50:07;;;;;;;;;;;17.10;55.80;;;;;;5131203;27;19923;-77
2022/09/03 05:52:34;;;;;;;;;;;17.20;56.00;;;;;;5120846;27;19930;-76
2022/09/03 05:55:01;;;;;;;;;;;17.20;56.20;;;;;;5130214;27;19923;-76
2022/09/03 05:57:28;;;;;;;;;;;17.20;56.30;;;;;;5130591;27;19973;-76
2022/09/03 05:59:56;;;;;;;;;;;17.20;56.10;;;;;;5126320;27;20284;-75
2022/09/03 06:02:23;;;;;;;;;;;17.20;56.10;;;;;;5127238;27;19968;-76
2022/09/03 06:04:50;;;;;;;;;;;17.20;56.10;;;;;;5127286;27;19919;-78
2022/09/03 06:07:17;;;;;;;;;;;17.20;56.10;;;;;;5133599;27;19929;-77
2022/09/03 06:09:43;;;;;;;;;;;17.20;56.30;;;;;;5129439;27;19931;-76
2022/09/03 06:12:10;;;;;;;;;;;17.30;56.00;;;;;;5127478;27;19929;-77
2022/09/03 06:14:37;;;;;;;;;;;17.30;55.90;;;;;;5118986;27;20344;-77
2022/09/03 06:17:05;;;;;;;;;;;17.40;55.60;;;;;;5121588;27;19924;-77
2022/09/03 06:19:32;;;;;;;;;;;17.40;55.40;;;;;;5128896;27;19923;-74
2022/09/03 06:21:59;;;;;;;;;;;17.40;55.50;;;;;;5117784;27;19927;-78
2022/09/03 06:24:26;;;;;;;;;;;17.50;55.40;;;;;;5124122;27;19923;-76
2022/09/03 06:26:53;;;;;;;;;;;17.60;55.20;;;;;;5125489;27;20025;-76
2022/09/03 06:29:19;;;;;;;;;;;17.70;55.10;;;;;;5127608;27;20158;-76
2022/09/03 06:31:47;;;;;;;;;;;17.70;55.00;;;;;;5130508;27;19927;-76
2022/09/03 06:34:17;;;;;;;;;;;17.80;55.10;;;;;;5123016;27;19924;-78
2022/09/03 06:36:44;;;;;;;;;;;17.80;55.00;;;;;;5121261;27;19927;-76
2022/09/03 06:39:11;;;;;;;;;;;17.90;55.10;;;;;;5124138;27;19927;-76
2022/09/03 06:41:38;;;;;;;;;;;17.80;54.90;;;;;;5121916;27;19980;-75
2022/09/03 06:44:10;;;;;;;;;;;17.90;54.70;;;;;;5129385;27;20384;-76
2022/09/03 06:46:41;;;;;;;;;;;17.90;54.90;;;;;;5125695;27;19919;-76
2022/09/03 06:49:08;;;;;;;;;;;17.90;54.90;;;;;;5124250;27;19920;-77
2022/09/03 06:51:36;;;;;;;;;;;17.90;55.00;;;;;;5126830;27;19920;-77
2022/09/03 06:54:04;;;;;;;;;;;17.90;55.00;;;;;;5123650;27;19932;-76
2022/09/03 06:56:31;;;;;;;;;;;18.00;54.90;;;;;;5127968;27;19919;-77
2022/09/03 06:58:59;;;;;;;;;;;18.00;54.70;;;;;;5130374;27;20021;-78
2022/09/03 07:01:27;;;;;;;;;;;18.00;54.70;;;;;;5123562;27;20019;-79
2022/09/03 07:03:55;;;;;;;;;;;18.10;54.70;;;;;;5131597;27;19920;-77
2022/09/03 07:06:23;;;;;;;;;;;18.10;54.60;;;;;;5126979;27;19923;-76
2022/09/03 07:08:51;;;;;;;;;;;18.10;54.70;;;;;;5125349;27;19927;-76
2022/09/03 07:11:20;;;;;;;;;;;18.20;54.50;;;;;;5126074;27;19919;-77
2022/09/03 07:13:48;;;;;;;;;;;18.20;54.50;;;;;;5112097;27;19923;-76
2022/09/03 07:16:16;;;;;;;;;;;18.20;54.40;;;;;;5130151;27;19919;-76
2022/09/03 07:18:43;;;;;;;;;;;18.20;54.20;;;;;;5128364;27;19924;-76
2022/09/03 07:21:11;;;;;;;;;;;18.30;54.00;;;;;;5123666;27;20026;-76
2022/09/03 07:23:38;;;;;;;;;;;18.30;53.90;;;;;;5125374;27;19929;-75
2022/09/03 07:26:07;;;;;;;;;;;18.30;53.80;;;;;;5122981;27;20332;-76
2022/09/03 07:28:34;;;;;;;;;;;18.30;53.80;;;;;;5117697;27;19935;-75
2022/09/03 07:31:02;;;;;;;;;;;18.40;53.80;;;;;;5123998;27;19933;-76
2022/09/03 07:33:30;;;;;;;;;;;18.40;53.70;;;;;;5119801;27;20588;-74
2022/09/03 07:36:01;;;;;;;;;;;18.40;53.70;;;;;;5129521;27;19926;-73
2022/09/03 07:38:28;;;;;;;;;;;18.50;53.60;;;;;;5122593;27;19972;-74
2022/09/03 07:40:57;;;;;;;;;;;18.50;53.60;;;;;;5131275;27;20312;-73
2022/09/03 07:43:26;;;;;;;;;;;18.50;53.60;;;;;;5122944;27;20049;-73
2022/09/03 07:45:53;;;;;;;;;;;18.50;53.70;;;;;;5123783;27;19919;-74
2022/09/03 07:48:20;;;;;;;;;;;18.50;53.70;;;;;;5125147;27;19923;-73
2022/09/03 07:50:47;;;;;;;;;;;18.60;53.60;;;;;;5128842;27;19926;-74
2022/09/03 07:53:15;;;;;;;;;;;18.50;53.50;;;;;;5123222;27;19927;-73
2022/09/03 07:55:42;;;;;;;;;;;18.60;53.70;;;;;;5127886;27;20306;-74
2022/09/03 07:58:10;;;;;;;;;;;18.60;53.60;;;;;;5126496;27;20349;-73
2022/09/03 08:00:38;;;;;;;;;;;18.60;53.60;;;;;;5130111;27;20335;-76
2022/09/03 08:03:07;;;;;;;;;;;18.60;53.60;;;;;;5117165;27;20399;-73
2022/09/03 08:05:35;;;;;;;;;;;18.60;53.80;;;;;;5125166;27;19927;-74
2022/09/03 08:08:02;;;;;;;;;;;18.60;53.90;;;;;;5130626;27;20388;-73
2022/09/03 08:10:29;;;;;;;;;;;18.60;53.90;;;;;;5120809;27;19927;-76
2022/09/03 08:12:56;;;;;;;;;;;18.60;53.90;;;;;;5123381;27;19923;-74
2022/09/03 08:15:23;;;;;;;;;;;18.60;53.90;;;;;;5129616;27;19935;-75
2022/09/03 08:17:51;;;;;;;;;;;18.60;54.10;;;;;;5128585;27;20053;-74
2022/09/03 08:20:18;;;;;;;;;;;18.60;54.00;;;;;;5121729;27;19923;-75
2022/09/03 08:22:45;;;;;;;;;;;18.60;53.90;;;;;;5129867;27;20013;-74
2022/09/03 08:25:12;;;;;;;;;;;18.60;53.80;;;;;;5125766;27;19923;-75
2022/09/03 08:27:39;;;;;;;;;;;18.60;53.80;;;;;;5129781;27;20014;-74
2022/09/03 08:30:10;;;;;;;;;;;18.70;53.70;;;;;;5130196;27;19972;-74
2022/09/03 08:32:37;;;;;;;;;;;18.70;53.70;;;;;;5127556;27;20368;-75
2022/09/03 08:35:06;;;;;;;;;;;18.70;53.70;;;;;;5118118;27;20451;-76
2022/09/03 08:37:33;;;;;;;;;;;18.60;54.00;;;;;;5130103;27;19919;-76
2022/09/03 08:40:00;;;;;;;;;;;18.70;53.90;;;;;;5126373;27;20331;-76
2022/09/03 08:42:38;;;;;;;;;;;18.70;53.80;;;;;;5128259;27;19931;-74
2022/09/03 08:45:07;;;;;;;;;;;18.70;53.70;;;;;;5125982;27;19919;-74
2022/09/03 08:47:37;;;;;;;;;;;18.70;53.70;;;;;;5126410;27;20022;-73
2022/09/03 08:50:11;;;;;;;;;;;18.70;53.70;;;;;;5120122;27;20342;-74
2022/09/03 08:52:40;;;;;;;;;;;18.70;53.80;;;;;;5115347;27;19927;-76
2022/09/03 08:55:14;;;;;;;;;;;18.80;53.80;;;;;;5127350;27;19929;-74
2022/09/03 08:57:44;;;;;;;;;;;18.80;53.70;;;;;;5132617;27;20292;-74
2022/09/03 09:00:11;;;;;;;;;;;18.90;53.60;;;;;;5127324;27;20464;-75
2022/09/03 09:02:44;;;;;;;;;;;19.00;53.70;;;;;;5126788;27;20438;-74
2022/09/03 09:05:16;;;;;;;;;;;19.00;53.90;;;;;;5129894;27;19927;-74
2022/09/03 09:07:45;;;;;;;;;;;19.10;53.70;;;;;;5133931;27;19958;-76
2022/09/03 09:10:15;;;;;;;;;;;19.20;53.40;;;;;;5121822;27;20373;-74
2022/09/03 09:12:46;;;;;;;;;;;19.40;53.20;;;;;;5128428;27;19926;-74
2022/09/03 09:15:17;;;;;;;;;;;19.50;52.90;;;;;;5130003;27;20417;-75
2022/09/03 09:18:00;;;;;;;;;;;19.60;52.70;;;;;;5128290;27;19974;-75
2022/09/03 09:20:32;;;;;;;;;;;19.90;52.40;;;;;;5130072;27;19923;-75
2022/09/03 09:23:01;;;;;;;;;;;20.10;52.20;;;;;;5116881;27;23318;-74
2022/09/03 09:25:30;;;;;;;;;;;20.30;52.00;;;;;;5124838;27;19955;-76
2022/09/03 09:27:59;;;;;;;;;;;20.50;51.80;;;;;;5130634;27;19947;-76
2022/09/03 09:30:26;;;;;;;;;;;20.60;51.20;;;;;;5128015;27;19935;-76
2022/09/03 09:32:54;;;;;;;;;;;20.60;51.10;;;;;;5126519;27;19946;-76
2022/09/03 09:35:20;;;;;;;;;;;20.70;51.00;;;;;;5125234;27;19927;-77
2022/09/03 09:37:52;;;;;;;;;;;20.80;50.80;;;;;;5131064;27;19963;-76
2022/09/03 09:40:32;;;;;;;;;;;20.80;50.80;;;;;;5129302;27;20352;-76
2022/09/03 09:43:06;;;;;;;;;;;20.80;50.70;;;;;;5129124;27;19919;-76
2022/09/03 09:45:33;;;;;;;;;;;20.70;50.60;;;;;;5124641;27;19920;-75
2022/09/03 09:48:00;;;;;;;;;;;20.70;50.40;;;;;;5120487;27;19923;-75
2022/09/03 09:50:26;;;;;;;;;;;20.80;50.50;;;;;;5120830;27;19919;-75
2022/09/03 09:53:04;;;;;;;;;;;20.80;50.50;;;;;;5126896;27;19923;-76
2022/09/03 09:55:31;;;;;;;;;;;20.90;50.30;;;;;;5128236;27;19931;-76
2022/09/03 09:58:05;;;;;;;;;;;21.00;50.00;;;;;;5123370;27;19946;-75
2022/09/03 10:00:33;;;;;;;;;;;21.10;49.60;;;;;;5117182;27;20149;-75
2022/09/03 10:03:00;;;;;;;;;;;21.30;49.40;;;;;;5125330;27;19934;-75
2022/09/03 10:05:29;;;;;;;;;;;21.40;49.40;;;;;;5124297;27;20315;-75
2022/09/03 10:07:58;;;;;;;;;;;21.50;48.70;;;;;;5124360;27;19992;-75
2022/09/03 10:10:27;;;;;;;;;;;21.60;48.40;;;;;;5128700;27;19919;-75
2022/09/03 10:13:00;;;;;;;;;;;21.70;48.20;;;;;;5126281;27;19958;-74
2022/09/03 10:15:31;;;;;;;;;;;21.80;48.30;;;;;;5128404;27;19938;-75
2022/09/03 10:18:03;;;;;;;;;;;21.90;48.20;;;;;;5119189;27;19919;-75
2022/09/03 10:20:36;;;;;;;;;;;22.10;48.20;;;;;;5123563;27;20610;-75
2022/09/03 10:23:08;;;;;;;;;;;22.10;47.70;;;;;;5123887;27;19926;-75
2022/09/03 10:25:39;;;;;;;;;;;22.20;47.70;;;;;;5124334;27;20022;-75
2022/09/03 10:28:08;;;;;;;;;;;22.20;47.50;;;;;;5117337;27;19923;-76
2022/09/03 10:30:45;;;;;;;;;;;22.30;47.30;;;;;;5126424;27;19919;-76
2022/09/03 10:33:15;;;;;;;;;;;22.30;47.20;;;;;;5119337;27;19930;-75
2022/09/03 10:35:45;;;;;;;;;;;22.30;47.20;;;;;;5122609;27;19923;-76
2022/09/03 10:38:17;;;;;;;;;;;22.30;47.10;;;;;;5115531;27;20385;-75
2022/09/03 10:40:49;;;;;;;;;;;22.30;47.10;;;;;;5121274;27;20421;-76
2022/09/03 10:43:31;;;;;;;;;;;22.30;46.90;;;;;;5127977;27;19926;-75
2022/09/03 10:46:04;;;;;;;;;;;22.30;46.80;;;;;;5124639;27;19923;-74
2022/09/03 10:48:39;;;;;;;;;;;22.20;46.70;;;;;;5122927;27;19927;-75
2022/09/03 10:51:10;;;;;;;;;;;22.20;46.90;;;;;;5112237;27;19926;-74
2022/09/03 10:53:45;;;;;;;;;;;22.20;47.00;;;;;;5121502;27;20302;-74
2022/09/03 10:56:16;;;;;;;;;;;22.30;46.90;;;;;;5120892;27;19920;-74
2022/09/03 10:58:50;;;;;;;;;;;22.30;46.80;;;;;;5131863;27;20322;-75
2022/09/03 11:01:22;;;;;;;;;;;22.40;46.70;;;;;;5123859;27;19926;-75
2022/09/03 11:03:50;;;;;;;;;;;22.50;46.60;;;;;;5130246;27;19925;-76
2022/09/03 11:06:20;;;;;;;;;;;22.60;46.70;;;;;;5127588;27;19919;-76
2022/09/03 11:08:51;;;;;;;;;;;22.70;46.50;;;;;;5124320;27;19947;-75
2022/09/03 11:11:25;;;;;;;;;;;22.80;46.20;;;;;;5123216;27;19924;-74
2022/09/03 11:13:54;;;;;;;;;;;22.90;46.30;;;;;;5116379;27;19928;-75
2022/09/03 11:16:25;;;;;;;;;;;22.90;46.10;;;;;;5130307;27;19919;-74
2022/09/03 11:18:54;;;;;;;;;;;22.90;46.00;;;;;;5121732;27;19920;-75
2022/09/03 11:21:23;;;;;;;;;;;22.90;46.10;;;;;;5129690;27;19926;-74
2022/09/03 11:23:51;;;;;;;;;;;23.00;46.00;;;;;;5126021;27;19919;-75
2022/09/03 11:26:20;;;;;;;;;;;23.00;46.00;;;;;;5124720;27;19926;-74
2022/09/03 11:28:51;;;;;;;;;;;23.00;46.10;;;;;;5128815;27;19923;-74
2022/09/03 11:31:23;;;;;;;;;;;23.00;46.20;;;;;;5123460;27;19931;-75
2022/09/03 11:33:53;;;;;;;;;;;23.00;46.30;;;;;;5126792;27;19919;-75
2022/09/03 11:36:30;;;;;;;;;;;22.90;46.40;;;;;;5125010;27;19923;-74
2022/09/03 11:38:58;;;;;;;;;;;22.90;46.50;;;;;;5126581;27;19923;-75
2022/09/03 11:41:27;;;;;;;;;;;22.90;46.70;;;;;;5126894;27;20369;-76
2022/09/03 11:43:54;;;;;;;;;;;22.80;46.80;;;;;;5121053;28;19927;-73
2022/09/03 11:46:28;;;;;;;;;;;22.80;46.60;;;;;;5127714;27;19919;-74
2022/09/03 11:48:56;;;;;;;;;;;22.90;46.80;;;;;;5126071;27;19923;-74
2022/09/03 11:51:32;;;;;;;;;;;22.90;47.00;;;;;;5131830;27;19923;-75
2022/09/03 11:53:59;;;;;;;;;;;22.90;47.10;;;;;;5124576;27;20433;-75
2022/09/03 11:56:28;;;;;;;;;;;22.90;47.10;;;;;;5123633;28;19927;-75
2022/09/03 11:59:16;;;;;;;;;;;22.90;47.10;;;;;;5130970;27;19927;-74
2022/09/03 12:01:44;;;;;;;;;;;23.00;47.00;;;;;;5127133;27;20055;-73
2022/09/03 12:04:14;;;;;;;;;;;23.00;47.00;;;;;;5128229;27;19919;-74
2022/09/03 12:07:14;;;;;;;;;;;22.90;46.70;;;;;;5128062;27;20596;-74
2022/09/03 12:09:51;;;;;;;;;;;22.90;46.60;;;;;;5063349;28;20023;-73
2022/09/03 12:12:29;;;;;;;;;;;23.00;46.60;;;;;;5056773;28;19935;-75
2022/09/03 12:15:01;;;;;;;;;;;23.00;46.80;;;;;;5091334;27;19924;-76
2022/09/03 12:17:30;;;;;;;;;;;23.00;46.80;;;;;;5124123;28;19942;-78
2022/09/03 12:19:57;;;;;;;;;;;23.00;46.80;;;;;;5125513;27;19972;-77
2022/09/03 12:22:25;;;;;;;;;;;23.00;46.70;;;;;;5118678;27;20304;-76
2022/09/03 12:24:52;;;;;;;;;;;23.10;46.70;;;;;;5126316;27;19984;-76
2022/09/03 12:27:23;;;;;;;;;;;23.10;47.10;;;;;;5124144;27;20365;-77
2022/09/03 12:29:58;;;;;;;;;;;23.10;47.20;;;;;;5129011;27;19919;-72
2022/09/03 12:32:26;;;;;;;;;;;23.10;47.00;;;;;;5126256;28;20431;-76
2022/09/03 12:34:53;;;;;;;;;;;23.20;46.80;;;;;;5112214;27;19927;-75
2022/09/03 12:37:22;;;;;;;;;;;23.40;46.70;;;;;;5131123;27;19919;-74
2022/09/03 12:39:54;;;;;;;;;;;23.60;46.20;;;;;;5127088;27;19941;-75
2022/09/03 12:42:23;;;;;;;;;;;23.70;46.00;;;;;;5124292;27;20292;-76
2022/09/03 12:44:52;;;;;;;;;;;23.80;45.70;;;;;;5127289;27;20347;-76
2022/09/03 12:47:20;;;;;;;;;;;23.90;45.50;;;;;;5127080;27;19972;-75
2022/09/03 12:49:48;;;;;;;;;;;23.80;45.80;;;;;;5127185;27;20387;-75
2022/09/03 12:52:17;;;;;;;;;;;23.70;45.60;;;;;;5128308;27;19927;-74
2022/09/03 12:54:48;;;;;;;;;;;23.70;45.70;;;;;;5123886;27;19941;-75
2022/09/03 12:57:17;;;;;;;;;;;23.60;45.60;;;;;;5132706;27;19926;-75
2022/09/03 12:59:44;;;;;;;;;;;23.70;45.60;;;;;;5127762;27;19934;-75
2022/09/03 13:02:15;;;;;;;;;;;23.70;45.70;;;;;;5120243;27;19926;-76
2022/09/03 13:04:42;;;;;;;;;;;23.80;45.60;;;;;;5128942;27;20416;-76
2022/09/03 13:07:12;;;;;;;;;;;23.90;46.30;;;;;;5129631;27;19927;-74
2022/09/03 13:09:41;;;;;;;;;;;23.90;46.10;;;;;;5124147;27;19931;-76
2022/09/03 13:12:20;;;;;;;;;;;23.90;45.90;;;;;;5122657;27;19970;-74
2022/09/03 13:14:47;;;;;;;;;;;23.90;45.80;;;;;;5121885;27;20262;-73
2022/09/03 13:17:21;;;;;;;;;;;23.80;45.80;;;;;;5128484;27;19991;-73
2022/09/03 13:19:52;;;;;;;;;;;23.80;45.80;;;;;;5128313;27;20012;-74
2022/09/03 13:22:24;;;;;;;;;;;23.90;45.90;;;;;;5124476;27;19930;-74
2022/09/03 13:24:59;;;;;;;;;;;23.80;45.90;;;;;;5123154;27;19935;-73
2022/09/03 13:27:29;;;;;;;;;;;23.90;46.00;;;;;;5131406;27;19950;-73
2022/09/03 13:30:01;;;;;;;;;;;23.90;45.90;;;;;;5130397;27;19925;-75
2022/09/03 13:32:32;;;;;;;;;;;23.90;45.70;;;;;;5125171;27;20010;-74
2022/09/03 13:35:03;;;;;;;;;;;24.00;45.80;;;;;;5127142;27;19927;-73
2022/09/03 13:37:33;;;;;;;;;;;24.00;45.90;;;;;;5127933;27;19919;-73
2022/09/03 13:40:06;;;;;;;;;;;24.00;45.80;;;;;;5126485;27;19959;-73
2022/09/03 13:42:35;;;;;;;;;;;24.00;46.10;;;;;;5125011;27;19935;-73
2022/09/03 13:45:05;;;;;;;;;;;24.00;46.00;;;;;;5127991;27;19936;-72
2022/09/03 13:47:35;;;;;;;;;;;23.90;46.10;;;;;;5125592;27;19931;-73
2022/09/03 13:50:21;;;;;;;;;;;24.00;46.30;;;;;;5111759;27;19920;-75
2022/09/03 13:52:55;;;;;;;;;;;23.80;46.30;;;;;;5128099;27;19920;-73
2022/09/03 13:55:25;;;;;;;;;;;23.80;46.50;;;;;;5129238;27;19965;-72
2022/09/03 13:57:54;;;;;;;;;;;23.80;46.60;;;;;;5127517;27;19919;-74
2022/09/03 14:00:25;;;;;;;;;;;23.80;46.50;;;;;;5117747;27;19988;-73
2022/09/03 14:02:55;;;;;;;;;;;23.80;46.60;;;;;;5131951;27;20027;-74
2022/09/03 14:05:31;;;;;;;;;;;23.90;46.50;;;;;;5129176;27;20006;-73
2022/09/03 14:08:06;;;;;;;;;;;23.90;46.50;;;;;;5129021;27;19934;-73
2022/09/03 14:10:36;;;;;;;;;;;23.90;46.70;;;;;;5130273;27;19962;-71
2022/09/03 14:13:10;;;;;;;;;;;24.00;46.70;;;;;;5124520;27;19964;-71
2022/09/03 14:15:43;;;;;;;;;;;24.00;46.40;;;;;;5126431;27;19920;-72
2022/09/03 14:18:13;;;;;;;;;;;24.00;46.80;;;;;;5128178;27;19929;-72
2022/09/03 14:20:43;;;;;;;;;;;24.10;46.70;;;;;;5121277;27;19927;-72
2022/09/03 14:23:17;;;;;;;;;;;24.10;46.60;;;;;;5125775;27;20010;-73
2022/09/03 14:25:51;;;;;;;;;;;24.10;46.40;;;;;;5131879;27;19975;-71
2022/09/03 14:28:27;;;;;;;;;;;24.10;46.60;;;;;;5132522;27;19927;-72
2022/09/03 14:30:57;;;;;;;;;;;24.10;46.70;;;;;;5131537;27;19959;-72